Time;durP1;ratioP1;P1;durP2;ratioP2;P2;SDS_P1;SDS_P2;PMS_P1;PMS_P2;Temp;Humidity;BMP_temperature;BMP_pressure;BME280_temperature;BME280_humidity;BME280_pressure;Samples;Min_cycle;Max_cycle;Signal;HPM_P1;HPM_P2
2022/02/27 00:02:16;;;;;;;8.80;3.47;;;3.00;99.90;;;;;;5042016;28;20192;-67
2022/02/27 00:04:42;;;;;;;4.77;3.40;;;3.00;99.90;;;;;;5043173;28;20234;-69
2022/02/27 00:07:07;;;;;;;7.00;4.27;;;3.00;99.90;;;;;;5043215;28;20206;-69
2022/02/27 00:09:33;;;;;;;6.30;3.73;;;3.00;99.90;;;;;;5033879;28;20679;-68
2022/02/27 00:11:58;;;;;;;6.60;3.73;;;3.00;99.90;;;;;;5024846;28;20194;-69
2022/02/27 00:14:24;;;;;;;7.50;2.73;;;2.90;99.90;;;;;;5037030;28;20182;-68
2022/02/27 00:16:50;;;;;;;10.47;4.67;;;2.90;99.90;;;;;;5042823;28;20302;-69
2022/02/27 00:19:16;;;;;;;3.37;2.70;;;2.90;99.90;;;;;;5027522;28;20509;-68
2022/02/27 00:21:42;;;;;;;7.13;3.60;;;2.80;99.90;;;;;;5040660;28;20224;-68
2022/02/27 00:24:10;;;;;;;8.33;3.57;;;2.80;99.90;;;;;;5025264;28;20648;-68
2022/02/27 00:26:35;;;;;;;8.70;3.10;;;2.80;99.90;;;;;;5042806;28;20448;-67
2022/02/27 00:29:01;;;;;;;8.83;3.40;;;2.70;99.90;;;;;;5043030;28;20421;-67
2022/02/27 00:31:27;;;;;;;4.97;3.53;;;2.60;99.90;;;;;;5043198;28;20261;-68
2022/02/27 00:33:52;;;;;;;5.20;2.90;;;2.70;99.90;;;;;;5042800;28;20553;-68
2022/02/27 00:36:18;;;;;;;4.83;3.40;;;2.60;99.90;;;;;;5043010;28;20210;-68
2022/02/27 00:38:44;;;;;;;7.73;4.27;;;2.60;99.90;;;;;;5045832;28;20182;-68
2022/02/27 00:41:10;;;;;;;9.50;4.10;;;2.70;99.90;;;;;;5046088;28;20181;-67
2022/02/27 00:43:36;;;;;;;9.90;3.33;;;2.70;99.90;;;;;;5046441;28;20413;-68
2022/02/27 00:46:04;;;;;;;8.80;3.63;;;2.70;99.90;;;;;;5046445;28;20222;-68
2022/02/27 00:48:30;;;;;;;7.63;3.70;;;2.60;99.90;;;;;;5046682;28;20171;-67
2022/02/27 00:50:55;;;;;;;5.17;3.73;;;2.70;99.90;;;;;;5046190;28;20417;-67
2022/02/27 00:53:21;;;;;;;6.23;3.77;;;2.70;99.90;;;;;;5046394;28;20554;-68
2022/02/27 00:55:46;;;;;;;5.27;3.50;;;2.70;99.90;;;;;;5045602;28;20206;-67
2022/02/27 00:58:12;;;;;;;7.57;4.00;;;2.60;99.90;;;;;;5046746;28;20196;-67
2022/02/27 01:00:38;;;;;;;6.97;3.87;;;2.60;99.90;;;;;;5046140;28;20204;-67
2022/02/27 01:03:03;;;;;;;7.47;3.70;;;2.60;99.90;;;;;;5046263;28;20189;-67
2022/02/27 01:05:29;;;;;;;9.73;3.40;;;2.60;99.90;;;;;;5045912;28;20178;-67
2022/02/27 01:07:54;;;;;;;9.43;3.30;;;2.70;99.90;;;;;;5046306;28;20348;-67
2022/02/27 01:10:20;;;;;;;9.67;5.03;;;2.60;99.90;;;;;;5044178;28;20236;-67
2022/02/27 01:12:46;;;;;;;10.10;4.83;;;2.60;99.90;;;;;;5046139;28;20182;-68
2022/02/27 01:15:11;;;;;;;9.50;3.83;;;2.60;99.90;;;;;;5046421;28;20179;-67
2022/02/27 01:17:37;;;;;;;5.47;3.47;;;2.60;99.90;;;;;;5046222;28;20825;-67
2022/02/27 01:20:05;;;;;;;6.80;3.53;;;2.50;99.90;;;;;;5035812;28;20175;-68
2022/02/27 01:22:31;;;;;;;9.23;3.60;;;2.50;99.90;;;;;;5030615;28;20550;-68
2022/02/27 01:24:57;;;;;;;9.70;4.10;;;2.40;99.90;;;;;;5038003;28;20419;-68
2022/02/27 01:27:23;;;;;;;8.13;4.50;;;2.40;99.90;;;;;;5035869;28;20887;-68
2022/02/27 01:29:48;;;;;;;10.73;4.23;;;2.40;99.90;;;;;;5045682;28;20193;-68
2022/02/27 01:32:14;;;;;;;7.10;3.93;;;2.40;99.90;;;;;;5045745;28;20193;-68
2022/02/27 01:34:39;;;;;;;9.83;3.60;;;2.40;99.90;;;;;;5045530;28;20182;-69
2022/02/27 01:37:05;;;;;;;7.97;4.13;;;2.40;99.90;;;;;;5045831;28;20217;-69
2022/02/27 01:39:31;;;;;;;6.67;3.63;;;2.50;99.90;;;;;;5045273;28;20201;-68
2022/02/27 01:41:57;;;;;;;9.90;3.90;;;2.40;99.90;;;;;;5045646;28;20408;-68
2022/02/27 01:44:23;;;;;;;7.30;3.93;;;2.40;99.90;;;;;;5045302;28;20409;-69
2022/02/27 01:47:11;;;;;;;7.83;4.20;;;2.30;99.90;;;;;;5036985;28;20468;-68
2022/02/27 01:49:37;;;;;;;9.17;3.77;;;2.30;99.90;;;;;;5027004;28;20612;-69
2022/02/27 01:52:04;;;;;;;5.43;3.57;;;2.40;99.90;;;;;;5045151;28;20479;-69
2022/02/27 01:54:30;;;;;;;7.90;4.27;;;2.40;99.90;;;;;;5032917;28;20452;-68
2022/02/27 01:56:56;;;;;;;9.23;4.40;;;2.30;99.90;;;;;;5024258;28;20906;-68
2022/02/27 01:59:22;;;;;;;10.43;4.83;;;2.30;99.90;;;;;;5025779;28;20776;-68
2022/02/27 02:01:48;;;;;;;4.83;3.70;;;2.30;99.90;;;;;;5025788;28;20422;-68
2022/02/27 02:04:14;;;;;;;6.87;4.30;;;2.20;99.90;;;;;;5025735;28;21016;-67
2022/02/27 02:06:39;;;;;;;10.47;4.20;;;2.20;99.90;;;;;;5045484;28;20682;-68
2022/02/27 02:09:05;;;;;;;8.30;3.70;;;2.20;99.90;;;;;;5045150;28;20940;-67
2022/02/27 02:11:32;;;;;;;5.43;3.40;;;2.30;99.90;;;;;;5045208;28;20222;-67
2022/02/27 02:13:59;;;;;;;9.40;3.73;;;2.30;99.90;;;;;;5045369;28;20189;-68
2022/02/27 02:16:24;;;;;;;9.17;4.13;;;2.20;99.90;;;;;;5044746;28;21327;-69
2022/02/27 02:18:51;;;;;;;7.20;3.47;;;2.20;99.90;;;;;;5044994;28;20467;-69
2022/02/27 02:21:16;;;;;;;7.77;3.83;;;2.20;99.90;;;;;;5028667;28;20182;-68
2022/02/27 02:23:51;;;;;;;13.90;3.90;;;2.10;99.90;;;;;;5044840;28;20413;-68
2022/02/27 02:26:17;;;;;;;9.30;5.20;;;2.00;99.90;;;;;;5043265;28;20238;-69
2022/02/27 02:28:44;;;;;;;7.07;3.73;;;2.10;99.90;;;;;;5045010;28;20439;-69
2022/02/27 02:31:09;;;;;;;6.10;3.80;;;2.10;99.90;;;;;;5045252;28;20428;-68
2022/02/27 02:33:38;;;;;;;7.73;4.50;;;2.10;99.90;;;;;;5029964;28;20433;-69
2022/02/27 02:36:07;;;;;;;5.33;3.67;;;2.10;99.90;;;;;;5044378;28;20215;-69
2022/02/27 02:38:33;;;;;;;9.17;4.40;;;2.00;99.90;;;;;;5044504;28;20420;-67
2022/02/27 02:40:58;;;;;;;5.73;3.17;;;2.00;99.90;;;;;;5043791;28;20916;-67
2022/02/27 02:43:24;;;;;;;5.23;3.00;;;2.00;99.90;;;;;;5044259;28;20179;-68
2022/02/27 02:45:50;;;;;;;4.00;3.17;;;2.00;99.90;;;;;;5044084;28;20267;-67
2022/02/27 02:48:17;;;;;;;6.53;3.50;;;2.00;99.90;;;;;;5044068;28;20246;-68
2022/02/27 02:50:43;;;;;;;7.87;4.00;;;2.00;99.90;;;;;;5044287;28;20409;-68
2022/02/27 02:53:08;;;;;;;5.30;3.40;;;2.00;99.90;;;;;;5032146;28;20799;-67
2022/02/27 02:55:34;;;;;;;21.30;4.10;;;2.00;99.90;;;;;;5043525;28;20289;-68
2022/02/27 02:58:00;;;;;;;10.30;3.70;;;2.00;99.90;;;;;;5043979;28;20173;-67
2022/02/27 03:00:25;;;;;;;7.90;3.43;;;2.00;99.90;;;;;;5043862;28;20232;-68
2022/02/27 03:02:51;;;;;;;11.33;4.07;;;2.00;99.90;;;;;;5044157;28;20635;-67
2022/02/27 03:05:17;;;;;;;5.70;4.13;;;2.00;99.90;;;;;;5028717;28;20183;-68
2022/02/27 03:07:42;;;;;;;9.40;3.53;;;1.90;99.90;;;;;;5024354;28;20194;-67
2022/02/27 03:10:09;;;;;;;18.07;5.93;;;1.90;99.90;;;;;;5033127;28;20625;-68
2022/02/27 03:12:35;;;;;;;5.30;3.57;;;1.90;99.90;;;;;;5043735;28;20258;-68
2022/02/27 03:15:02;;;;;;;7.70;3.60;;;1.90;99.90;;;;;;5043224;28;20467;-67
2022/02/27 03:17:28;;;;;;;5.87;3.60;;;1.90;99.90;;;;;;5024624;28;20473;-68
2022/02/27 03:19:53;;;;;;;7.37;3.70;;;1.80;99.90;;;;;;5043374;28;20446;-67
2022/02/27 03:22:19;;;;;;;5.97;3.17;;;1.80;99.90;;;;;;5032766;28;20543;-69
2022/02/27 03:24:45;;;;;;;8.43;3.73;;;1.90;99.90;;;;;;5024573;28;20189;-67
2022/02/27 03:27:10;;;;;;;9.30;3.83;;;1.80;99.90;;;;;;5043231;28;20937;-67
2022/02/27 03:29:36;;;;;;;7.67;3.77;;;1.80;99.90;;;;;;5043806;28;20307;-68
2022/02/27 03:32:02;;;;;;;8.70;3.90;;;1.80;99.90;;;;;;5043414;28;20197;-67
2022/02/27 03:34:28;;;;;;;11.60;4.30;;;1.80;99.90;;;;;;5043586;28;20425;-67
2022/02/27 03:36:54;;;;;;;6.57;3.77;;;1.80;99.90;;;;;;5043217;28;20209;-68
2022/02/27 03:39:19;;;;;;;7.07;3.87;;;1.80;99.90;;;;;;5043709;28;20170;-68
2022/02/27 03:41:45;;;;;;;6.10;3.70;;;1.80;99.90;;;;;;5042889;28;20646;-67
2022/02/27 03:44:11;;;;;;;6.87;3.80;;;1.80;99.90;;;;;;5043562;28;20642;-68
2022/02/27 03:46:37;;;;;;;10.63;3.90;;;1.70;99.90;;;;;;5043405;28;20218;-69
2022/02/27 03:49:04;;;;;;;6.47;4.00;;;1.70;99.90;;;;;;5043528;28;20643;-69
2022/02/27 03:51:31;;;;;;;5.67;4.30;;;1.70;99.90;;;;;;5042177;28;20182;-67
2022/02/27 03:53:56;;;;;;;6.10;3.47;;;1.70;99.90;;;;;;5043277;28;20875;-68
2022/02/27 03:56:22;;;;;;;9.97;4.80;;;1.70;99.90;;;;;;5042812;28;20468;-68
2022/02/27 03:58:48;;;;;;;9.53;3.70;;;1.70;99.90;;;;;;5041961;28;20196;-67
2022/02/27 04:01:13;;;;;;;10.70;3.90;;;1.70;99.90;;;;;;5043557;28;20642;-67
2022/02/27 04:03:39;;;;;;;11.80;3.87;;;1.70;99.90;;;;;;5043408;28;20622;-68
2022/02/27 04:06:05;;;;;;;6.90;4.20;;;1.60;99.90;;;;;;5041490;28;20275;-68
2022/02/27 04:08:30;;;;;;;6.50;4.30;;;1.70;99.90;;;;;;5023427;28;20191;-67
2022/02/27 04:10:56;;;;;;;7.10;4.70;;;1.70;99.90;;;;;;5023259;28;20175;-67
2022/02/27 04:13:22;;;;;;;7.30;4.90;;;1.70;99.90;;;;;;5026054;28;20205;-67
2022/02/27 04:15:47;;;;;;;4.90;3.43;;;1.70;99.90;;;;;;5027279;28;20218;-69
2022/02/27 04:18:13;;;;;;;5.70;4.30;;;1.70;99.90;;;;;;5027270;28;20179;-67
2022/02/27 04:20:39;;;;;;;6.57;4.37;;;1.60;99.90;;;;;;5046734;28;20662;-68
2022/02/27 04:23:04;;;;;;;5.10;3.83;;;1.60;99.90;;;;;;5047060;28;20431;-68
2022/02/27 04:25:30;;;;;;;8.87;4.67;;;1.60;99.90;;;;;;5055712;22;20227;-68
2022/02/27 04:27:56;;;;;;;7.63;4.13;;;1.60;99.90;;;;;;5024866;28;20183;-68
2022/02/27 04:30:23;;;;;;;6.93;3.80;;;1.50;99.90;;;;;;5025949;28;20491;-69
2022/02/27 04:32:49;;;;;;;7.00;3.60;;;1.50;99.90;;;;;;5026228;28;20420;-68
2022/02/27 04:35:15;;;;;;;7.10;4.23;;;1.60;99.90;;;;;;5013229;28;20812;-67
2022/02/27 04:37:41;;;;;;;7.67;4.70;;;1.60;99.90;;;;;;5006331;28;20460;-67
2022/02/27 04:40:07;;;;;;;8.40;4.70;;;1.50;99.90;;;;;;5006594;28;20419;-68
2022/02/27 04:42:34;;;;;;;7.10;4.17;;;1.40;99.90;;;;;;5006254;28;20170;-69
2022/02/27 04:45:00;;;;;;;10.63;4.43;;;1.40;99.90;;;;;;5006783;28;20516;-68
2022/02/27 04:47:26;;;;;;;9.30;4.83;;;1.50;99.90;;;;;;5006868;28;20933;-68
2022/02/27 04:49:52;;;;;;;7.90;4.30;;;1.40;99.90;;;;;;5006752;28;20188;-67
2022/02/27 04:52:18;;;;;;;13.67;5.03;;;1.40;99.90;;;;;;5006700;28;20787;-68
2022/02/27 04:54:44;;;;;;;7.47;4.27;;;1.40;99.90;;;;;;5006309;28;20424;-67
2022/02/27 04:57:10;;;;;;;8.53;4.40;;;1.40;99.90;;;;;;5005860;28;20451;-68
2022/02/27 04:59:36;;;;;;;18.13;4.93;;;1.40;99.90;;;;;;5006452;28;20411;-67
2022/02/27 05:02:02;;;;;;;9.00;4.57;;;1.40;99.90;;;;;;5006298;28;20740;-67
2022/02/27 05:04:28;;;;;;;7.63;4.00;;;1.50;99.90;;;;;;5004921;28;20943;-68
2022/02/27 05:06:53;;;;;;;7.33;4.63;;;1.50;99.90;;;;;;5005784;28;20423;-68
2022/02/27 05:09:19;;;;;;;8.07;4.50;;;1.50;99.90;;;;;;5005730;28;20193;-68
2022/02/27 05:11:47;;;;;;;6.40;4.37;;;1.50;99.90;;;;;;5005353;28;20184;-67
2022/02/27 05:14:13;;;;;;;10.30;4.33;;;1.50;99.90;;;;;;5005692;28;20203;-67
2022/02/27 05:16:40;;;;;;;7.80;4.60;;;1.40;99.90;;;;;;5005798;28;21061;-68
2022/02/27 05:19:06;;;;;;;6.70;4.40;;;1.40;99.90;;;;;;5005733;28;20182;-70
2022/02/27 05:21:32;;;;;;;7.80;4.70;;;1.40;99.90;;;;;;4988371;28;20505;-68
2022/02/27 05:23:57;;;;;;;8.67;4.40;;;1.30;99.90;;;;;;5005608;28;20435;-70
2022/02/27 05:26:23;;;;;;;9.90;4.90;;;1.30;99.90;;;;;;5005511;28;20187;-67
2022/02/27 05:28:48;;;;;;;8.93;5.03;;;1.20;99.90;;;;;;5004729;28;20637;-68
2022/02/27 05:31:14;;;;;;;5.80;4.73;;;1.20;99.90;;;;;;5005728;28;20237;-68
2022/02/27 05:33:40;;;;;;;6.60;4.80;;;1.30;99.90;;;;;;5005859;28;20186;-67
2022/02/27 05:36:06;;;;;;;9.83;5.23;;;1.30;99.90;;;;;;5005580;28;20393;-69
2022/02/27 05:38:32;;;;;;;10.07;4.93;;;1.20;99.90;;;;;;5005880;28;20917;-68
2022/02/27 05:40:57;;;;;;;9.03;5.40;;;1.20;99.90;;;;;;5005193;28;20183;-68
2022/02/27 05:43:23;;;;;;;9.90;5.70;;;1.20;99.90;;;;;;5005783;28;20180;-69
2022/02/27 05:45:49;;;;;;;7.23;4.60;;;1.30;99.90;;;;;;5005597;28;20196;-68
2022/02/27 05:48:14;;;;;;;7.03;5.10;;;1.30;99.90;;;;;;5005510;28;20662;-69
2022/02/27 05:50:40;;;;;;;7.63;5.03;;;1.30;99.90;;;;;;5005722;28;20758;-70
2022/02/27 05:53:06;;;;;;;7.20;6.13;;;1.30;99.90;;;;;;5005546;28;20287;-68
2022/02/27 05:55:31;;;;;;;9.40;4.93;;;1.20;99.90;;;;;;5005403;28;20187;-68
2022/02/27 05:57:57;;;;;;;8.60;5.63;;;1.20;99.90;;;;;;5004977;28;20313;-68
2022/02/27 06:00:23;;;;;;;8.63;5.43;;;1.20;99.90;;;;;;5005574;28;20679;-68
2022/02/27 06:02:48;;;;;;;11.03;6.17;;;1.20;99.90;;;;;;5005336;28;20221;-68
2022/02/27 06:05:14;;;;;;;7.70;5.47;;;1.20;99.90;;;;;;5005292;28;20290;-68
2022/02/27 06:07:39;;;;;;;7.93;5.50;;;1.30;99.90;;;;;;5010746;28;20174;-68
2022/02/27 06:10:06;;;;;;;10.50;5.83;;;1.20;99.90;;;;;;5014192;28;20172;-68
2022/02/27 06:12:32;;;;;;;8.20;6.53;;;1.20;99.90;;;;;;5005170;28;20187;-69
2022/02/27 06:14:57;;;;;;;9.63;5.90;;;1.10;99.90;;;;;;5004951;28;20461;-69
2022/02/27 06:17:23;;;;;;;9.47;7.03;;;1.20;99.90;;;;;;5005056;28;20445;-68
2022/02/27 06:19:49;;;;;;;10.30;7.70;;;1.20;99.90;;;;;;5005075;28;20176;-68
2022/02/27 06:22:16;;;;;;;10.93;7.27;;;1.20;99.90;;;;;;5009829;28;20262;-68
2022/02/27 06:24:41;;;;;;;10.17;6.87;;;1.20;99.90;;;;;;5013837;28;20436;-68
2022/02/27 06:27:07;;;;;;;11.03;7.50;;;1.20;99.90;;;;;;5012905;28;20993;-68
2022/02/27 06:29:33;;;;;;;11.57;8.60;;;1.20;99.90;;;;;;5014409;28;20266;-68
2022/02/27 06:31:58;;;;;;;10.77;6.30;;;1.20;99.90;;;;;;5014467;28;20206;-68
2022/02/27 06:34:24;;;;;;;9.10;7.70;;;1.20;99.90;;;;;;5014356;28;20195;-68
2022/02/27 06:36:49;;;;;;;10.70;6.80;;;1.20;99.90;;;;;;5013376;28;20240;-68
2022/02/27 06:39:15;;;;;;;11.17;6.67;;;1.20;99.90;;;;;;5013833;28;20167;-68
2022/02/27 06:41:41;;;;;;;10.37;6.27;;;1.30;99.90;;;;;;5013499;28;20204;-68
2022/02/27 06:44:06;;;;;;;8.10;6.60;;;1.30;99.90;;;;;;5014140;28;20191;-68
2022/02/27 06:46:32;;;;;;;14.20;8.70;;;1.30;99.90;;;;;;5014199;28;20629;-68
2022/02/27 06:48:57;;;;;;;15.03;10.87;;;1.30;99.90;;;;;;5013874;28;20263;-66
2022/02/27 06:51:23;;;;;;;15.63;8.90;;;1.40;99.90;;;;;;5013671;28;20212;-68
2022/02/27 06:53:49;;;;;;;13.13;7.10;;;1.40;99.90;;;;;;5013785;28;20175;-68
2022/02/27 06:56:14;;;;;;;11.23;8.20;;;1.30;99.90;;;;;;5012849;28;20224;-68
2022/02/27 06:58:40;;;;;;;14.00;7.33;;;1.40;99.90;;;;;;5013512;28;20179;-68
2022/02/27 07:01:06;;;;;;;10.00;7.70;;;1.40;99.90;;;;;;5013749;28;20255;-68
2022/02/27 07:03:31;;;;;;;7.70;6.50;;;1.50;99.90;;;;;;5013402;28;20930;-67
2022/02/27 07:05:57;;;;;;;8.73;7.10;;;1.40;99.90;;;;;;5013960;28;20184;-67
2022/02/27 07:08:23;;;;;;;12.53;6.60;;;1.50;99.90;;;;;;5013526;28;20171;-67
2022/02/27 07:10:48;;;;;;;8.57;6.90;;;1.50;99.90;;;;;;5013228;28;20225;-67
2022/02/27 07:13:14;;;;;;;12.13;8.40;;;1.50;99.90;;;;;;5011460;28;20257;-68
2022/02/27 07:15:39;;;;;;;9.50;7.17;;;1.50;99.90;;;;;;4993800;28;20287;-68
2022/02/27 07:18:05;;;;;;;11.67;8.77;;;1.60;99.90;;;;;;4994121;28;20172;-68
2022/02/27 07:20:32;;;;;;;9.47;6.80;;;1.60;99.90;;;;;;4993790;28;20196;-67
2022/02/27 07:22:57;;;;;;;13.17;8.33;;;1.60;99.90;;;;;;5008592;28;20739;-68
2022/02/27 07:25:23;;;;;;;14.90;8.37;;;1.60;99.90;;;;;;4995189;28;20455;-68
2022/02/27 07:27:49;;;;;;;17.47;8.30;;;1.70;99.90;;;;;;5013059;28;20597;-68
2022/02/27 07:30:14;;;;;;;11.93;8.67;;;1.80;99.90;;;;;;5013262;28;20172;-68
2022/02/27 07:32:40;;;;;;;9.90;8.40;;;1.90;99.90;;;;;;5013205;28;20231;-68
2022/02/27 07:35:06;;;;;;;8.90;7.00;;;2.00;99.90;;;;;;5012894;28;20296;-67
2022/02/27 07:37:34;;;;;;;10.30;6.90;;;2.00;99.90;;;;;;5012926;28;20196;-68
2022/02/27 07:39:59;;;;;;;11.80;7.30;;;2.10;99.90;;;;;;5013324;28;20832;-68
2022/02/27 07:42:25;;;;;;;10.43;7.90;;;2.20;99.90;;;;;;5012520;28;20502;-68
2022/02/27 07:44:52;;;;;;;10.97;7.23;;;2.30;99.90;;;;;;5013028;28;20196;-68
2022/02/27 07:47:18;;;;;;;11.50;7.87;;;2.40;99.90;;;;;;5014154;28;20179;-68
2022/02/27 07:49:44;;;;;;;12.63;9.00;;;2.50;99.90;;;;;;5017624;28;20414;-68
2022/02/27 07:52:09;;;;;;;16.23;9.23;;;2.50;99.90;;;;;;5017128;28;20547;-67
2022/02/27 07:54:35;;;;;;;13.57;7.70;;;2.60;99.90;;;;;;5017161;28;20621;-68
2022/02/27 07:57:00;;;;;;;13.53;7.83;;;2.70;99.90;;;;;;5011232;28;20200;-68
2022/02/27 07:59:26;;;;;;;10.40;7.80;;;2.80;99.90;;;;;;4999056;28;20172;-66
2022/02/27 08:01:52;;;;;;;10.43;7.80;;;2.80;99.90;;;;;;4997685;28;20626;-67
2022/02/27 08:04:17;;;;;;;12.23;8.30;;;3.00;99.90;;;;;;4997382;28;20196;-67
2022/02/27 08:06:43;;;;;;;12.30;7.87;;;3.10;99.90;;;;;;4996816;28;20176;-68
2022/02/27 08:09:10;;;;;;;12.17;8.17;;;3.20;99.90;;;;;;4997943;28;20195;-67
2022/02/27 08:11:36;;;;;;;10.27;7.87;;;3.30;99.90;;;;;;4997190;28;20184;-68
2022/02/27 08:14:02;;;;;;;11.50;8.93;;;3.40;99.90;;;;;;4997352;28;20804;-68
2022/02/27 08:16:28;;;;;;;13.63;9.00;;;3.60;99.90;;;;;;4997468;28;20479;-67
2022/02/27 08:18:54;;;;;;;11.57;8.30;;;3.70;99.90;;;;;;4997014;28;20436;-68
2022/02/27 08:21:19;;;;;;;13.70;9.17;;;3.80;99.90;;;;;;4997014;28;20202;-68
2022/02/27 08:23:45;;;;;;;13.73;8.93;;;3.90;99.90;;;;;;4996908;28;20192;-68
2022/02/27 08:26:11;;;;;;;11.50;8.03;;;4.00;99.90;;;;;;5003033;28;20188;-68
2022/02/27 08:28:36;;;;;;;13.17;9.10;;;4.00;99.90;;;;;;5016444;28;20175;-68
2022/02/27 08:31:02;;;;;;;17.80;9.47;;;4.10;99.90;;;;;;5016436;28;20176;-68
2022/02/27 08:33:28;;;;;;;8.90;8.00;;;4.20;99.90;;;;;;5016507;28;20180;-68
2022/02/27 08:35:55;;;;;;;12.87;8.90;;;4.30;99.90;;;;;;5016345;28;20196;-69
2022/02/27 08:38:21;;;;;;;9.93;8.43;;;4.30;99.90;;;;;;5016322;28;20467;-68
2022/02/27 08:40:47;;;;;;;13.07;7.70;;;4.20;99.90;;;;;;5016354;28;20872;-69
2022/02/27 08:43:13;;;;;;;10.73;7.50;;;4.30;99.90;;;;;;5016173;28;20414;-68
2022/02/27 08:45:39;;;;;;;8.13;6.73;;;4.40;99.90;;;;;;5016412;28;20426;-68
2022/02/27 08:48:04;;;;;;;11.43;7.20;;;4.50;99.90;;;;;;5016561;28;20176;-68
2022/02/27 08:50:30;;;;;;;8.50;7.70;;;4.60;99.90;;;;;;5016220;28;20172;-68
2022/02/27 08:52:56;;;;;;;13.83;8.00;;;4.70;99.90;;;;;;5016015;28;20241;-68
2022/02/27 08:55:22;;;;;;;10.63;7.47;;;4.70;99.90;;;;;;5016059;28;20235;-68
2022/02/27 08:57:48;;;;;;;8.30;6.33;;;4.80;99.90;;;;;;5014945;28;20634;-67
2022/02/27 09:00:15;;;;;;;7.40;6.70;;;4.80;99.90;;;;;;5015875;28;20442;-68
2022/02/27 09:02:41;;;;;;;8.77;6.33;;;5.00;99.90;;;;;;5015888;28;20172;-68
2022/02/27 09:05:08;;;;;;;8.30;7.30;;;5.00;99.90;;;;;;5015917;28;20473;-68
2022/02/27 09:07:34;;;;;;;8.67;5.73;;;5.10;99.90;;;;;;5015763;28;20415;-68
2022/02/27 09:10:00;;;;;;;7.27;6.00;;;5.00;99.90;;;;;;5015580;28;20407;-68
2022/02/27 09:12:26;;;;;;;7.20;6.50;;;5.00;99.90;;;;;;5015343;28;20569;-67
2022/02/27 09:14:52;;;;;;;7.13;5.17;;;5.10;99.90;;;;;;5015562;28;20192;-67
2022/02/27 09:17:19;;;;;;;6.93;5.83;;;5.20;99.90;;;;;;5015590;28;20534;-68
2022/02/27 09:19:46;;;;;;;7.20;6.00;;;5.30;99.90;;;;;;5015623;28;20505;-68
2022/02/27 09:22:12;;;;;;;8.23;6.50;;;5.40;99.90;;;;;;5016075;28;20482;-67
2022/02/27 09:24:38;;;;;;;7.27;5.80;;;5.50;99.90;;;;;;5015343;28;20848;-67
2022/02/27 09:27:04;;;;;;;7.20;5.60;;;5.50;99.90;;;;;;5014664;28;20422;-67
2022/02/27 09:29:30;;;;;;;6.80;6.00;;;5.60;99.90;;;;;;5015438;28;20414;-67
2022/02/27 09:31:56;;;;;;;8.47;6.07;;;5.60;99.90;;;;;;5015235;28;20407;-67
2022/02/27 09:34:21;;;;;;;9.33;6.33;;;5.60;99.90;;;;;;5015595;28;20192;-67
2022/02/27 09:36:47;;;;;;;7.47;6.17;;;5.70;99.90;;;;;;5015744;28;20200;-67
2022/02/27 09:39:13;;;;;;;6.43;5.67;;;5.90;99.90;;;;;;5015593;28;20238;-67
2022/02/27 09:41:39;;;;;;;11.30;6.17;;;6.00;99.90;;;;;;5015042;28;20183;-68
2022/02/27 09:44:07;;;;;;;5.30;4.80;;;6.00;99.90;;;;;;5015121;28;20422;-68
2022/02/27 09:46:32;;;;;;;6.70;5.60;;;6.00;99.90;;;;;;5015463;28;20184;-68
2022/02/27 09:48:58;;;;;;;7.90;6.10;;;6.10;99.90;;;;;;5015077;28;20806;-67
2022/02/27 09:51:25;;;;;;;7.30;6.10;;;6.30;99.90;;;;;;5015161;28;20552;-67
2022/02/27 09:53:51;;;;;;;7.67;5.30;;;6.40;99.90;;;;;;5013723;28;20415;-68
2022/02/27 09:56:17;;;;;;;9.03;6.03;;;6.30;99.90;;;;;;5014628;28;20461;-68
2022/02/27 09:58:43;;;;;;;6.17;4.73;;;6.30;99.90;;;;;;5014732;28;20407;-67
2022/02/27 10:01:10;;;;;;;7.13;5.27;;;6.50;99.90;;;;;;5014987;28;20415;-67
2022/02/27 10:03:35;;;;;;;7.70;5.47;;;6.60;99.90;;;;;;5015056;28;20916;-67
2022/02/27 10:06:02;;;;;;;6.60;5.30;;;6.60;99.90;;;;;;5014653;28;20423;-67
2022/02/27 10:08:39;;;;;;;5.40;4.50;;;6.70;99.90;;;;;;5014988;28;20565;-67
2022/02/27 10:11:06;;;;;;;6.10;5.00;;;6.90;99.90;;;;;;5013732;28;20399;-68
2022/02/27 10:13:32;;;;;;;6.90;6.07;;;7.00;99.90;;;;;;5015104;28;20409;-67
2022/02/27 10:16:09;;;;;;;5.60;5.00;;;7.20;99.90;;;;;;5014755;28;20782;-68
2022/02/27 10:18:41;;;;;;;7.83;4.50;;;7.20;99.90;;;;;;5014725;28;20172;-68
2022/02/27 10:21:25;;;;;;;4.93;4.50;;;7.20;99.90;;;;;;5014406;28;20486;-67
2022/02/27 10:24:05;;;;;;;5.43;3.93;;;7.20;99.90;;;;;;5014080;28;20431;-67
2022/02/27 10:26:34;;;;;;;7.23;4.90;;;7.10;99.90;;;;;;5070592;23;20592;-68
2022/02/27 10:29:10;;;;;;;9.93;5.10;;;7.00;99.90;;;;;;5052141;28;20437;-69
2022/02/27 10:31:38;;;;;;;6.10;4.83;;;6.80;99.90;;;;;;5053420;28;20389;-68
2022/02/27 10:34:24;;;;;;;4.93;4.27;;;7.00;99.90;;;;;;5054024;28;20908;-67
2022/02/27 10:37:15;;;;;;;10.07;5.93;;;7.00;99.90;;;;;;5053589;28;20498;-68
2022/02/27 10:39:48;;;;;;;6.57;4.50;;;7.10;99.90;;;;;;5054051;28;20430;-68
2022/02/27 10:42:17;;;;;;;4.33;3.90;;;7.20;99.60;;;;;;5053293;28;20386;-68
2022/02/27 10:44:58;;;;;;;6.83;4.47;;;7.30;98.90;;;;;;5053594;28;20413;-68
2022/02/27 10:47:27;;;;;;;5.20;4.40;;;7.30;98.80;;;;;;5053907;28;20431;-68
2022/02/27 10:49:56;;;;;;;5.03;4.53;;;7.40;98.80;;;;;;5027414;28;20445;-68
2022/02/27 10:52:25;;;;;;;5.63;4.50;;;7.60;98.30;;;;;;5033085;28;20505;-68
2022/02/27 10:55:00;;;;;;;5.80;4.20;;;7.60;98.10;;;;;;5033676;28;20458;-68
2022/02/27 10:57:35;;;;;;;4.77;4.30;;;7.60;97.50;;;;;;5032725;28;20454;-68
2022/02/27 11:00:30;;;;;;;5.00;4.00;;;7.70;96.60;;;;;;5033556;28;20479;-68
2022/02/27 11:03:05;;;;;;;4.63;4.20;;;7.80;96.30;;;;;;5033639;28;20820;-68
2022/02/27 11:05:36;;;;;;;5.43;3.00;;;7.80;96.70;;;;;;5030216;28;20929;-68
2022/02/27 11:08:04;;;;;;;5.17;3.93;;;7.80;95.70;;;;;;5032915;28;20392;-68
2022/02/27 11:10:32;;;;;;;4.87;4.40;;;7.90;94.50;;;;;;5031895;28;20418;-67
2022/02/27 11:13:11;;;;;;;5.70;3.50;;;7.80;94.30;;;;;;5032923;28;20492;-68
2022/02/27 11:15:37;;;;;;;5.00;4.00;;;7.80;93.70;;;;;;5033168;28;20434;-68
2022/02/27 11:18:07;;;;;;;4.70;3.80;;;7.90;94.00;;;;;;5032834;28;21003;-68
2022/02/27 11:20:33;;;;;;;5.90;3.27;;;8.00;93.30;;;;;;5033234;28;20467;-68
2022/02/27 11:22:59;;;;;;;5.33;3.67;;;8.80;92.40;;;;;;5032851;28;20412;-68
2022/02/27 11:25:26;;;;;;;5.00;3.80;;;10.30;88.00;;;;;;5031825;28;20440;-69
2022/02/27 11:28:22;;;;;;;4.60;3.80;;;11.50;83.60;;;;;;5032622;28;20227;-69
2022/02/27 11:30:59;;;;;;;5.30;3.60;;;12.60;79.30;;;;;;5032992;28;20855;-69
2022/02/27 11:33:25;;;;;;;4.57;3.83;;;12.20;73.70;;;;;;5031415;28;20423;-69
2022/02/27 11:35:58;;;;;;;4.23;3.50;;;11.90;73.60;;;;;;5032876;28;20797;-69
2022/02/27 11:38:30;;;;;;;5.03;3.50;;;12.50;71.40;;;;;;5032969;28;20735;-68
2022/02/27 11:41:00;;;;;;;5.07;3.70;;;12.50;70.60;;;;;;5033089;28;20498;-69
2022/02/27 11:43:38;;;;;;;4.20;3.50;;;12.90;70.60;;;;;;5032393;28;20389;-69
2022/02/27 11:46:05;;;;;;;4.60;3.37;;;12.90;68.10;;;;;;5032705;28;20962;-69
2022/02/27 11:49:08;;;;;;;3.90;3.30;;;13.80;67.10;;;;;;5033076;28;20410;-68
2022/02/27 11:51:37;;;;;;;4.03;3.63;;;13.20;64.80;;;;;;5032968;28;20769;-70
2022/02/27 11:54:07;;;;;;;3.60;3.30;;;13.60;66.10;;;;;;5032652;28;20478;-69
2022/02/27 11:56:34;;;;;;;4.07;3.60;;;15.70;63.70;;;;;;5040013;28;20503;-69
2022/02/27 11:59:00;;;;;;;4.80;3.97;;;14.80;62.70;;;;;;5052331;28;20402;-69
2022/02/27 12:01:58;;;;;;;5.17;4.43;;;14.10;62.30;;;;;;5052500;28;20406;-69
2022/02/27 12:04:25;;;;;;;4.53;3.97;;;14.50;63.70;;;;;;5052711;28;20379;-69
2022/02/27 12:06:58;;;;;;;4.23;3.83;;;15.50;59.90;;;;;;5052539;28;20476;-69
2022/02/27 12:09:24;;;;;;;6.83;4.07;;;15.00;60.20;;;;;;5052549;28;20498;-69
2022/02/27 12:11:50;;;;;;;6.13;3.93;;;15.50;60.40;;;;;;5052338;28;20432;-69
2022/02/27 12:14:15;;;;;;;4.43;4.03;;;15.70;59.10;;;;;;5051380;28;20273;-69
2022/02/27 12:16:43;;;;;;;4.93;4.10;;;16.30;59.50;;;;;;5052339;28;20231;-69
2022/02/27 12:19:31;;;;;;;5.00;4.40;;;16.20;58.10;;;;;;5052470;28;20165;-68
2022/02/27 12:21:59;;;;;;;6.47;4.90;;;15.00;59.90;;;;;;5052297;28;20427;-69
2022/02/27 12:24:26;;;;;;;6.37;4.13;;;14.90;62.10;;;;;;5052755;28;20402;-69
2022/02/27 12:26:58;;;;;;;4.27;3.87;;;15.40;60.50;;;;;;5051906;28;20960;-69
2022/02/27 12:29:28;;;;;;;5.63;4.77;;;15.70;58.70;;;;;;5052445;28;20443;-69
2022/02/27 12:31:54;;;;;;;3.60;3.27;;;14.50;61.00;;;;;;5052342;28;20405;-69
2022/02/27 12:34:22;;;;;;;5.50;4.40;;;15.60;60.90;;;;;;5055023;28;20412;-69
2022/02/27 12:36:55;;;;;;;5.43;4.33;;;16.80;58.70;;;;;;5056319;28;21020;-69
2022/02/27 12:39:22;;;;;;;4.30;3.90;;;14.50;58.30;;;;;;5056471;28;20927;-69
2022/02/27 12:41:54;;;;;;;4.70;4.20;;;15.20;58.80;;;;;;5055773;28;20754;-69
2022/02/27 12:44:32;;;;;;;5.67;4.00;;;15.30;56.70;;;;;;5056191;28;20381;-69
2022/02/27 12:47:00;;;;;;;4.23;3.93;;;14.50;58.50;;;;;;5053925;28;20853;-68
2022/02/27 12:52:15;;;;;;;4.60;4.00;;;14.70;57.20;;;;;;5022351;28;20421;-69
2022/02/27 12:54:43;;;;;;;4.10;3.67;;;14.80;56.50;;;;;;5024910;28;20431;-69
2022/02/27 12:57:10;;;;;;;6.10;4.17;;;13.80;57.50;;;;;;5035015;28;20477;-69